createdAt,value
2018-09-08T05:20:41.691Z,61.80
2018-09-08T05:23:11.452Z,61.60
2018-09-08T05:29:25.578Z,61.00
2018-09-08T05:31:57.326Z,60.30
2018-09-08T05:34:27.889Z,59.30
2018-09-08T05:36:57.762Z,59.00
2018-09-08T05:39:31.099Z,59.00
2018-09-08T05:42:05.470Z,58.70
2018-09-08T05:44:43.515Z,59.00
2018-09-08T05:47:34.043Z,58.60
2018-09-08T05:50:11.876Z,59.00
2018-09-08T05:52:44.531Z,59.00
2018-09-08T05:55:15.576Z,58.50
2018-09-08T05:58:00.032Z,58.00
2018-09-08T06:00:30.518Z,57.80
2018-09-08T06:05:59.942Z,58.80
2018-09-08T06:08:33.844Z,59.90
2018-09-08T06:11:03.185Z,57.60
2018-09-08T06:13:45.211Z,58.40
2018-09-08T06:16:25.614Z,57.50
2018-09-08T06:19:08.684Z,56.70
2018-09-08T06:21:40.895Z,56.20
2018-09-08T06:24:31.754Z,54.20
2018-09-08T06:27:06.869Z,49.50
2018-09-08T06:29:51.196Z,45.20
2018-09-08T06:32:27.853Z,43.50
2018-09-08T06:35:09.616Z,43.20
2018-09-08T06:37:41.464Z,40.00
2018-09-08T06:40:30.309Z,37.60
2018-09-08T06:43:06.038Z,36.90
2018-09-08T06:45:56.434Z,36.30
2018-09-08T06:48:35.792Z,35.70
2018-09-08T06:51:11.706Z,33.70
2018-09-08T06:53:50.103Z,33.40
2018-09-08T06:56:26.879Z,33.70
2018-09-08T06:59:01.731Z,32.20
2018-09-08T07:01:41.594Z,31.70
2018-09-08T07:04:33.301Z,32.00
2018-09-08T07:07:15.247Z,32.20
2018-09-08T07:09:45.727Z,31.90
2018-09-08T07:12:15.854Z,33.40
2018-09-08T07:14:50.431Z,32.70
2018-09-08T07:17:35.719Z,32.20
2018-09-08T07:20:05.794Z,31.10
2018-09-08T07:22:37.106Z,30.20
2018-09-08T07:25:09.413Z,29.40
2018-09-08T07:28:01.916Z,30.00
2018-09-08T07:33:54.707Z,30.40
